sensor_id;sensor_type;location;lat;lon;timestamp;pressure;altitude;pressure_sealevel;temperature;humidity
10652;BME280;5374;42.742;23.266;2023-04-24T00:02:38;95188.09;;;12.12;71.14
10652;BME280;5374;42.742;23.266;2023-04-24T00:05:25;95185.66;;;12.01;70.33
10652;BME280;5374;42.742;23.266;2023-04-24T00:08:14;95183.28;;;11.94;70.36
10652;BME280;5374;42.742;23.266;2023-04-24T00:11:02;95176.88;;;11.90;69.48
10652;BME280;5374;42.742;23.266;2023-04-24T00:13:52;95161.97;;;11.79;68.84
10652;BME280;5374;42.742;23.266;2023-04-24T00:16:39;95177.91;;;11.79;67.86
10652;BME280;5374;42.742;23.266;2023-04-24T00:19:26;95175.25;;;11.79;68.01
10652;BME280;5374;42.742;23.266;2023-04-24T00:22:14;95159.25;;;11.63;67.65
10652;BME280;5374;42.742;23.266;2023-04-24T00:25:03;95180.03;;;11.77;68.19
10652;BME280;5374;42.742;23.266;2023-04-24T00:27:51;95183.22;;;11.74;71.52
10652;BME280;5374;42.742;23.266;2023-04-24T00:30:38;95174.13;;;11.59;72.19
10652;BME280;5374;42.742;23.266;2023-04-24T00:33:25;95180.53;;;11.63;72.94
10652;BME280;5374;42.742;23.266;2023-04-24T00:36:12;95181.84;;;11.61;74.39
10652;BME280;5374;42.742;23.266;2023-04-24T00:39:00;95179.69;;;11.53;75.08
10652;BME280;5374;42.742;23.266;2023-04-24T00:41:49;95186.34;;;11.50;75.19
10652;BME280;5374;42.742;23.266;2023-04-24T00:44:38;95156.00;;;11.41;75.30
10652;BME280;5374;42.742;23.266;2023-04-24T00:47:25;95150.13;;;11.34;75.24
10652;BME280;5374;42.742;23.266;2023-04-24T00:50:15;95173.81;;;11.41;75.93
10652;BME280;5374;42.742;23.266;2023-04-24T00:53:02;95159.16;;;11.33;77.51
10652;BME280;5374;42.742;23.266;2023-04-24T00:55:50;95160.22;;;11.37;77.82
10652;BME280;5374;42.742;23.266;2023-04-24T00:58:38;95168.78;;;11.44;80.54
10652;BME280;5374;42.742;23.266;2023-04-24T01:01:27;95167.16;;;11.38;80.79
10652;BME280;5374;42.742;23.266;2023-04-24T01:04:14;95165.56;;;11.37;80.75
10652;BME280;5374;42.742;23.266;2023-04-24T01:07:04;95162.88;;;11.32;81.80
10652;BME280;5374;42.742;23.266;2023-04-24T01:09:55;95161.56;;;11.35;82.05
10652;BME280;5374;42.742;23.266;2023-04-24T01:12:43;95147.19;;;11.36;82.36
10652;BME280;5374;42.742;23.266;2023-04-24T01:15:31;95157.56;;;11.32;82.45
10652;BME280;5374;42.742;23.266;2023-04-24T01:18:19;95147.47;;;11.29;82.44
10652;BME280;5374;42.742;23.266;2023-04-24T01:21:08;95153.28;;;11.21;82.72
10652;BME280;5374;42.742;23.266;2023-04-24T01:23:57;95141.84;;;11.20;83.31
10652;BME280;5374;42.742;23.266;2023-04-24T01:26:44;95142.09;;;11.19;83.51
10652;BME280;5374;42.742;23.266;2023-04-24T01:29:32;95134.34;;;11.07;83.74
10652;BME280;5374;42.742;23.266;2023-04-24T01:32:21;95147.13;;;11.15;84.38
10652;BME280;5374;42.742;23.266;2023-04-24T01:35:08;95146.31;;;11.05;84.88
10652;BME280;5374;42.742;23.266;2023-04-24T01:37:56;95150.28;;;11.02;85.30
10652;BME280;5374;42.742;23.266;2023-04-24T01:40:44;95142.47;;;10.85;88.40
10652;BME280;5374;42.742;23.266;2023-04-24T01:43:32;95135.03;;;10.82;88.05
10652;BME280;5374;42.742;23.266;2023-04-24T01:46:19;95126.25;;;10.77;88.21
10652;BME280;5374;42.742;23.266;2023-04-24T01:49:06;95131.78;;;10.70;88.55
10652;BME280;5374;42.742;23.266;2023-04-24T01:51:53;95126.44;;;10.60;88.63
10652;BME280;5374;42.742;23.266;2023-04-24T01:54:40;95139.72;;;10.65;89.45
10652;BME280;5374;42.742;23.266;2023-04-24T01:57:29;95131.19;;;10.63;89.38
10652;BME280;5374;42.742;23.266;2023-04-24T02:00:17;95126.13;;;10.56;89.65
10652;BME280;5374;42.742;23.266;2023-04-24T02:03:04;95122.69;;;10.56;89.36
10652;BME280;5374;42.742;23.266;2023-04-24T02:05:51;95128.75;;;10.51;89.54
10652;BME280;5374;42.742;23.266;2023-04-24T02:08:38;95135.09;;;10.45;89.41
10652;BME280;5374;42.742;23.266;2023-04-24T02:11:26;95131.06;;;10.38;89.58
10652;BME280;5374;42.742;23.266;2023-04-24T02:14:14;95135.25;;;10.28;89.69
10652;BME280;5374;42.742;23.266;2023-04-24T02:17:01;95135.78;;;10.31;89.74
10652;BME280;5374;42.742;23.266;2023-04-24T02:19:49;95135.19;;;10.23;89.30
10652;BME280;5374;42.742;23.266;2023-04-24T02:22:36;95137.56;;;10.20;88.64
10652;BME280;5374;42.742;23.266;2023-04-24T02:25:23;95110.34;;;10.03;88.05
10652;BME280;5374;42.742;23.266;2023-04-24T02:28:12;95127.66;;;10.10;87.99
10652;BME280;5374;42.742;23.266;2023-04-24T02:31:01;95088.72;;;9.84;88.41
10652;BME280;5374;42.742;23.266;2023-04-24T02:33:48;95114.84;;;10.02;89.24
10652;BME280;5374;42.742;23.266;2023-04-24T02:36:35;95109.00;;;10.00;89.95
10652;BME280;5374;42.742;23.266;2023-04-24T02:39:22;95087.94;;;9.83;90.10
10652;BME280;5374;42.742;23.266;2023-04-24T02:42:09;95114.25;;;9.95;89.84
10652;BME280;5374;42.742;23.266;2023-04-24T02:44:56;95090.03;;;9.81;89.87
10652;BME280;5374;42.742;23.266;2023-04-24T02:47:45;95084.13;;;9.74;90.18
10652;BME280;5374;42.742;23.266;2023-04-24T02:50:32;95114.25;;;9.90;90.49
10652;BME280;5374;42.742;23.266;2023-04-24T02:53:19;95109.22;;;9.93;91.19
10652;BME280;5374;42.742;23.266;2023-04-24T02:56:07;95107.34;;;9.89;90.73
10652;BME280;5374;42.742;23.266;2023-04-24T02:58:54;95107.28;;;9.84;91.46
10652;BME280;5374;42.742;23.266;2023-04-24T03:01:41;95097.19;;;9.81;91.59
10652;BME280;5374;42.742;23.266;2023-04-24T03:04:29;95101.13;;;9.78;91.40
10652;BME280;5374;42.742;23.266;2023-04-24T03:07:17;95106.69;;;9.77;90.98
10652;BME280;5374;42.742;23.266;2023-04-24T03:10:09;95108.53;;;9.76;90.61
10652;BME280;5374;42.742;23.266;2023-04-24T03:12:57;95117.03;;;9.78;90.45
10652;BME280;5374;42.742;23.266;2023-04-24T03:15:44;95061.38;;;9.46;90.02
10652;BME280;5374;42.742;23.266;2023-04-24T03:18:32;95089.25;;;9.54;90.36
10652;BME280;5374;42.742;23.266;2023-04-24T03:21:21;95101.34;;;9.72;90.17
10652;BME280;5374;42.742;23.266;2023-04-24T03:24:09;95108.78;;;9.70;90.16
10652;BME280;5374;42.742;23.266;2023-04-24T03:26:56;95110.88;;;9.68;89.94
10652;BME280;5374;42.742;23.266;2023-04-24T03:29:43;95104.50;;;9.69;89.87
10652;BME280;5374;42.742;23.266;2023-04-24T03:32:30;95108.53;;;9.76;89.13
10652;BME280;5374;42.742;23.266;2023-04-24T03:35:18;95109.34;;;9.77;89.37
10652;BME280;5374;42.742;23.266;2023-04-24T03:38:06;95108.84;;;9.80;89.24
10652;BME280;5374;42.742;23.266;2023-04-24T03:40:53;95106.47;;;9.83;88.06
10652;BME280;5374;42.742;23.266;2023-04-24T03:43:40;95108.69;;;9.91;87.82
10652;BME280;5374;42.742;23.266;2023-04-24T03:46:28;95115.84;;;9.96;87.31
10652;BME280;5374;42.742;23.266;2023-04-24T03:49:16;95117.72;;;9.95;87.16
10652;BME280;5374;42.742;23.266;2023-04-24T03:52:03;95116.69;;;10.02;86.85
10652;BME280;5374;42.742;23.266;2023-04-24T03:54:51;95114.38;;;10.10;86.47
10652;BME280;5374;42.742;23.266;2023-04-24T03:57:39;95101.16;;;10.15;86.55
10652;BME280;5374;42.742;23.266;2023-04-24T04:00:27;95118.00;;;10.31;86.34
10652;BME280;5374;42.742;23.266;2023-04-24T04:03:14;95110.13;;;10.46;85.81
10652;BME280;5374;42.742;23.266;2023-04-24T04:06:01;95113.38;;;10.53;85.74
10652;BME280;5374;42.742;23.266;2023-04-24T04:08:49;95115.91;;;10.80;84.34
10652;BME280;5374;42.742;23.266;2023-04-24T04:11:37;95105.47;;;11.36;82.50
10652;BME280;5374;42.742;23.266;2023-04-24T04:14:24;95113.56;;;12.02;76.32
10652;BME280;5374;42.742;23.266;2023-04-24T04:17:11;95113.00;;;12.25;73.75
10652;BME280;5374;42.742;23.266;2023-04-24T04:19:58;95111.97;;;12.11;72.47
10652;BME280;5374;42.742;23.266;2023-04-24T04:22:45;95117.56;;;12.20;73.11
10652;BME280;5374;42.742;23.266;2023-04-24T04:25:33;95126.97;;;12.97;70.40
10652;BME280;5374;42.742;23.266;2023-04-24T04:28:21;95125.97;;;13.52;67.65
10652;BME280;5374;42.742;23.266;2023-04-24T04:31:10;95131.31;;;14.25;65.40
10652;BME280;5374;42.742;23.266;2023-04-24T04:33:57;95137.66;;;14.34;62.03
10652;BME280;5374;42.742;23.266;2023-04-24T04:36:44;95143.88;;;14.25;61.85
10652;BME280;5374;42.742;23.266;2023-04-24T04:39:32;95146.59;;;13.81;63.35
10652;BME280;5374;42.742;23.266;2023-04-24T04:42:19;95138.25;;;13.53;64.13
10652;BME280;5374;42.742;23.266;2023-04-24T04:45:08;95149.50;;;13.40;64.23
10652;BME280;5374;42.742;23.266;2023-04-24T04:47:57;95161.56;;;13.32;64.60
10652;BME280;5374;42.742;23.266;2023-04-24T04:50:46;95153.56;;;13.27;64.69
10652;BME280;5374;42.742;23.266;2023-04-24T04:53:33;95159.91;;;13.37;64.93
10652;BME280;5374;42.742;23.266;2023-04-24T04:56:20;95147.19;;;13.73;64.11
10652;BME280;5374;42.742;23.266;2023-04-24T04:59:08;95143.38;;;14.23;62.47
10652;BME280;5374;42.742;23.266;2023-04-24T05:01:56;95155.41;;;14.83;60.87
10652;BME280;5374;42.742;23.266;2023-04-24T05:04:43;95161.66;;;14.74;60.49
10652;BME280;5374;42.742;23.266;2023-04-24T05:07:30;95166.44;;;14.48;61.34
10652;BME280;5374;42.742;23.266;2023-04-24T05:10:17;95155.00;;;14.42;61.84
10652;BME280;5374;42.742;23.266;2023-04-24T05:13:04;95159.88;;;14.30;62.13
10652;BME280;5374;42.742;23.266;2023-04-24T05:15:52;95149.31;;;14.15;62.44
10652;BME280;5374;42.742;23.266;2023-04-24T05:18:40;95163.09;;;13.93;62.46
10652;BME280;5374;42.742;23.266;2023-04-24T05:21:27;95158.31;;;13.85;62.36
10652;BME280;5374;42.742;23.266;2023-04-24T05:24:14;95152.41;;;13.93;62.39
10652;BME280;5374;42.742;23.266;2023-04-24T05:27:02;95127.72;;;14.11;60.38
10652;BME280;5374;42.742;23.266;2023-04-24T05:29:50;95155.47;;;14.10;60.67
10652;BME280;5374;42.742;23.266;2023-04-24T05:32:37;95151.69;;;14.21;61.67
10652;BME280;5374;42.742;23.266;2023-04-24T05:35:25;95147.69;;;14.53;60.78
10652;BME280;5374;42.742;23.266;2023-04-24T05:38:15;95162.63;;;14.54;60.21
10652;BME280;5374;42.742;23.266;2023-04-24T05:41:05;95164.28;;;14.50;60.62
10652;BME280;5374;42.742;23.266;2023-04-24T05:43:52;95157.28;;;14.54;61.06
10652;BME280;5374;42.742;23.266;2023-04-24T05:46:39;95156.31;;;14.97;59.67
10652;BME280;5374;42.742;23.266;2023-04-24T05:49:26;95154.09;;;16.46;56.64
10652;BME280;5374;42.742;23.266;2023-04-24T05:52:15;95153.16;;;18.06;52.28
10652;BME280;5374;42.742;23.266;2023-04-24T05:55:02;95134.91;;;19.32;48.17
10652;BME280;5374;42.742;23.266;2023-04-24T05:57:49;95159.34;;;20.62;44.74
10652;BME280;5374;42.742;23.266;2023-04-24T06:00:37;95143.28;;;21.38;41.13
10652;BME280;5374;42.742;23.266;2023-04-24T06:03:25;95159.75;;;22.45;38.84
10652;BME280;5374;42.742;23.266;2023-04-24T06:06:12;95150.75;;;23.19;36.72
10652;BME280;5374;42.742;23.266;2023-04-24T06:09:02;95166.50;;;23.75;34.44
10652;BME280;5374;42.742;23.266;2023-04-24T06:11:50;95167.22;;;23.72;35.26
10652;BME280;5374;42.742;23.266;2023-04-24T06:14:38;95174.53;;;23.83;33.98
10652;BME280;5374;42.742;23.266;2023-04-24T06:17:25;95151.19;;;22.97;35.03
10652;BME280;5374;42.742;23.266;2023-04-24T06:20:12;95165.97;;;23.12;35.68
10652;BME280;5374;42.742;23.266;2023-04-24T06:22:59;95170.66;;;22.91;35.60
10652;BME280;5374;42.742;23.266;2023-04-24T06:25:48;95183.13;;;22.29;36.63
10652;BME280;5374;42.742;23.266;2023-04-24T06:28:35;95167.81;;;21.54;36.62
10652;BME280;5374;42.742;23.266;2023-04-24T06:31:22;95183.84;;;21.59;37.75
10652;BME280;5374;42.742;23.266;2023-04-24T06:34:10;95180.97;;;21.64;36.76
10652;BME280;5374;42.742;23.266;2023-04-24T06:36:57;95175.53;;;22.23;37.38
10652;BME280;5374;42.742;23.266;2023-04-24T06:39:44;95172.63;;;22.28;35.96
10652;BME280;5374;42.742;23.266;2023-04-24T06:42:33;95171.09;;;22.18;36.85
10652;BME280;5374;42.742;23.266;2023-04-24T06:45:20;95167.53;;;22.47;36.38
10652;BME280;5374;42.742;23.266;2023-04-24T06:48:07;95163.97;;;22.55;35.67
10652;BME280;5374;42.742;23.266;2023-04-24T06:51:08;95167.81;;;22.54;36.07
10652;BME280;5374;42.742;23.266;2023-04-24T06:54:01;95158.28;;;22.69;35.73
10652;BME280;5374;42.742;23.266;2023-04-24T06:56:48;95164.56;;;22.61;36.65
10652;BME280;5374;42.742;23.266;2023-04-24T06:59:38;95161.31;;;22.67;37.04
10652;BME280;5374;42.742;23.266;2023-04-24T07:02:25;95154.69;;;22.98;36.82
10652;BME280;5374;42.742;23.266;2023-04-24T07:05:12;95137.50;;;22.94;36.26
10652;BME280;5374;42.742;23.266;2023-04-24T07:08:01;95145.97;;;22.92;36.10
10652;BME280;5374;42.742;23.266;2023-04-24T07:10:49;95154.88;;;22.80;36.15
10652;BME280;5374;42.742;23.266;2023-04-24T07:13:36;95150.97;;;22.48;36.51
10652;BME280;5374;42.742;23.266;2023-04-24T07:16:33;95155.22;;;22.16;36.85
10652;BME280;5374;42.742;23.266;2023-04-24T07:19:20;95147.09;;;22.37;36.63
10652;BME280;5374;42.742;23.266;2023-04-24T07:22:07;95141.00;;;22.40;36.15
10652;BME280;5374;42.742;23.266;2023-04-24T07:24:57;95137.28;;;22.66;36.28
10652;BME280;5374;42.742;23.266;2023-04-24T07:27:44;95132.81;;;23.27;35.74
10652;BME280;5374;42.742;23.266;2023-04-24T07:30:31;95146.19;;;23.69;34.26
10652;BME280;5374;42.742;23.266;2023-04-24T07:33:20;95138.56;;;23.99;34.77
10652;BME280;5374;42.742;23.266;2023-04-24T07:36:07;95139.47;;;24.03;34.66
10652;BME280;5374;42.742;23.266;2023-04-24T07:39:01;95130.47;;;23.86;35.16
10652;BME280;5374;42.742;23.266;2023-04-24T07:41:48;95130.22;;;23.92;36.26
10652;BME280;5374;42.742;23.266;2023-04-24T07:44:35;95119.63;;;23.86;34.72
10652;BME280;5374;42.742;23.266;2023-04-24T07:47:22;95119.84;;;23.94;35.20
10652;BME280;5374;42.742;23.266;2023-04-24T07:50:11;95121.97;;;23.15;37.25
10652;BME280;5374;42.742;23.266;2023-04-24T07:52:59;95086.19;;;23.22;36.38
10652;BME280;5374;42.742;23.266;2023-04-24T07:55:46;95104.16;;;23.38;36.62
10652;BME280;5374;42.742;23.266;2023-04-24T07:58:33;95118.25;;;23.80;37.33
10652;BME280;5374;42.742;23.266;2023-04-24T08:01:20;95119.41;;;23.55;35.94
10652;BME280;5374;42.742;23.266;2023-04-24T08:04:07;95090.50;;;23.47;36.30
10652;BME280;5374;42.742;23.266;2023-04-24T08:06:56;95122.78;;;23.76;35.80
10652;BME280;5374;42.742;23.266;2023-04-24T08:09:43;95105.81;;;23.79;35.83
10652;BME280;5374;42.742;23.266;2023-04-24T08:12:30;95104.03;;;23.83;36.70
10652;BME280;5374;42.742;23.266;2023-04-24T08:15:17;95105.38;;;23.29;37.23
10652;BME280;5374;42.742;23.266;2023-04-24T08:18:05;95102.22;;;23.51;35.89
10652;BME280;5374;42.742;23.266;2023-04-24T08:20:52;95092.53;;;23.62;36.69
10652;BME280;5374;42.742;23.266;2023-04-24T08:23:41;95090.38;;;23.43;37.18
10652;BME280;5374;42.742;23.266;2023-04-24T08:26:28;95077.47;;;23.28;36.10
10652;BME280;5374;42.742;23.266;2023-04-24T08:29:15;95066.78;;;23.19;36.52
10652;BME280;5374;42.742;23.266;2023-04-24T08:32:02;95078.97;;;23.13;37.70
10652;BME280;5374;42.742;23.266;2023-04-24T08:34:50;95074.91;;;23.44;38.18
10652;BME280;5374;42.742;23.266;2023-04-24T08:37:38;95076.16;;;23.59;38.22
10652;BME280;5374;42.742;23.266;2023-04-24T08:40:28;95071.28;;;23.64;35.81
10652;BME280;5374;42.742;23.266;2023-04-24T08:43:17;95048.03;;;23.63;35.70
10652;BME280;5374;42.742;23.266;2023-04-24T08:46:04;95062.66;;;23.74;36.91
10652;BME280;5374;42.742;23.266;2023-04-24T08:48:52;95057.03;;;23.79;35.39
10652;BME280;5374;42.742;23.266;2023-04-24T08:51:39;95065.47;;;23.90;35.44
10652;BME280;5374;42.742;23.266;2023-04-24T08:54:26;95050.44;;;23.93;36.06
10652;BME280;5374;42.742;23.266;2023-04-24T08:57:16;95049.72;;;23.56;37.10
10652;BME280;5374;42.742;23.266;2023-04-24T09:00:05;95048.72;;;22.99;39.03
10652;BME280;5374;42.742;23.266;2023-04-24T09:02:55;95044.63;;;23.42;37.13
10652;BME280;5374;42.742;23.266;2023-04-24T09:05:43;95039.66;;;23.44;36.66
10652;BME280;5374;42.742;23.266;2023-04-24T09:08:33;95024.53;;;23.43;36.85
10652;BME280;5374;42.742;23.266;2023-04-24T09:11:20;95015.88;;;23.25;37.67
10652;BME280;5374;42.742;23.266;2023-04-24T09:14:11;94998.59;;;23.05;37.22
10652;BME280;5374;42.742;23.266;2023-04-24T09:16:58;95010.09;;;22.90;37.85
10652;BME280;5374;42.742;23.266;2023-04-24T09:19:45;95005.31;;;22.50;38.50
10652;BME280;5374;42.742;23.266;2023-04-24T09:22:33;95015.03;;;22.18;39.78
10652;BME280;5374;42.742;23.266;2023-04-24T09:25:20;95006.19;;;22.42;39.95
10652;BME280;5374;42.742;23.266;2023-04-24T09:28:08;95000.72;;;22.75;39.42
10652;BME280;5374;42.742;23.266;2023-04-24T09:31:07;94995.44;;;23.03;37.91
10652;BME280;5374;42.742;23.266;2023-04-24T09:33:58;95002.34;;;23.01;38.08
10652;BME280;5374;42.742;23.266;2023-04-24T09:36:45;94992.50;;;23.21;37.15
10652;BME280;5374;42.742;23.266;2023-04-24T09:39:32;94985.28;;;23.12;38.35
10652;BME280;5374;42.742;23.266;2023-04-24T09:42:19;94983.56;;;23.32;37.70
10652;BME280;5374;42.742;23.266;2023-04-24T09:45:09;94986.13;;;23.65;37.24
10652;BME280;5374;42.742;23.266;2023-04-24T09:47:58;94993.28;;;23.85;37.48
10652;BME280;5374;42.742;23.266;2023-04-24T09:50:46;94987.84;;;24.13;34.85
10652;BME280;5374;42.742;23.266;2023-04-24T09:53:33;94991.16;;;24.50;36.06
10652;BME280;5374;42.742;23.266;2023-04-24T09:56:20;94988.13;;;24.52;37.29
10652;BME280;5374;42.742;23.266;2023-04-24T09:59:07;94985.84;;;24.54;36.51
10652;BME280;5374;42.742;23.266;2023-04-24T10:01:55;94979.34;;;24.43;35.27
10652;BME280;5374;42.742;23.266;2023-04-24T10:04:54;94966.09;;;24.26;35.08
10652;BME280;5374;42.742;23.266;2023-04-24T10:07:43;94960.41;;;24.03;35.15
10652;BME280;5374;42.742;23.266;2023-04-24T10:10:31;94966.63;;;24.31;37.84
10652;BME280;5374;42.742;23.266;2023-04-24T10:13:23;94960.50;;;24.66;37.03
10652;BME280;5374;42.742;23.266;2023-04-24T10:16:11;94948.19;;;24.84;37.00
10652;BME280;5374;42.742;23.266;2023-04-24T10:18:59;94943.88;;;24.83;35.66
10652;BME280;5374;42.742;23.266;2023-04-24T10:21:51;94934.16;;;24.66;34.81
10652;BME280;5374;42.742;23.266;2023-04-24T10:24:40;94944.22;;;24.66;34.69
10652;BME280;5374;42.742;23.266;2023-04-24T11:33:26;94903.91;;;21.78;48.00
10652;BME280;5374;42.742;23.266;2023-04-24T11:36:13;94907.91;;;21.60;49.24
10652;BME280;5374;42.742;23.266;2023-04-24T11:39:01;94901.28;;;22.03;47.54
10652;BME280;5374;42.742;23.266;2023-04-24T11:41:48;94906.63;;;22.11;47.71
10652;BME280;5374;42.742;23.266;2023-04-24T11:44:37;94873.22;;;21.62;46.67
10652;BME280;5374;42.742;23.266;2023-04-24T11:47:28;94901.75;;;22.17;43.92
10652;BME280;5374;42.742;23.266;2023-04-24T11:50:17;94897.50;;;22.65;41.29
10652;BME280;5374;42.742;23.266;2023-04-24T11:53:05;94894.34;;;22.26;42.73
10652;BME280;5374;42.742;23.266;2023-04-24T11:55:52;94885.31;;;22.22;43.07
10652;BME280;5374;42.742;23.266;2023-04-24T11:58:39;94882.16;;;22.44;42.82
10652;BME280;5374;42.742;23.266;2023-04-24T12:01:27;94884.19;;;22.60;42.58
10652;BME280;5374;42.742;23.266;2023-04-24T12:04:16;94873.38;;;22.23;42.51
10652;BME280;5374;42.742;23.266;2023-04-24T12:07:05;94875.16;;;22.19;42.56
10652;BME280;5374;42.742;23.266;2023-04-24T12:09:58;94877.66;;;22.73;41.83
10652;BME280;5374;42.742;23.266;2023-04-24T12:12:45;94865.25;;;22.47;42.29
10652;BME280;5374;42.742;23.266;2023-04-24T12:15:33;94865.94;;;22.81;40.76
10652;BME280;5374;42.742;23.266;2023-04-24T12:18:22;94873.03;;;22.98;40.35
10652;BME280;5374;42.742;23.266;2023-04-24T12:21:19;94858.13;;;23.04;40.18
10652;BME280;5374;42.742;23.266;2023-04-24T12:24:08;94869.75;;;22.92;41.09
10652;BME280;5374;42.742;23.266;2023-04-24T12:26:55;94810.44;;;22.63;41.21
10652;BME280;5374;42.742;23.266;2023-04-24T12:29:51;94840.44;;;22.82;41.55
10652;BME280;5374;42.742;23.266;2023-04-24T12:32:49;94821.25;;;22.75;41.89
10652;BME280;5374;42.742;23.266;2023-04-24T12:35:40;94821.03;;;22.68;42.11
10652;BME280;5374;42.742;23.266;2023-04-24T12:38:28;94818.88;;;22.73;40.03
10652;BME280;5374;42.742;23.266;2023-04-24T12:41:17;94810.88;;;22.77;39.11
10652;BME280;5374;42.742;23.266;2023-04-24T12:44:10;94801.00;;;22.44;41.19
10652;BME280;5374;42.742;23.266;2023-04-24T12:46:57;94796.38;;;22.57;41.53
10652;BME280;5374;42.742;23.266;2023-04-24T12:49:45;94800.03;;;22.77;41.51
10652;BME280;5374;42.742;23.266;2023-04-24T12:52:32;94803.22;;;22.67;41.76
10652;BME280;5374;42.742;23.266;2023-04-24T12:55:19;94784.72;;;22.81;41.29
10652;BME280;5374;42.742;23.266;2023-04-24T12:58:07;94780.38;;;22.92;40.57
10652;BME280;5374;42.742;23.266;2023-04-24T13:00:55;94773.94;;;23.25;38.86
10652;BME280;5374;42.742;23.266;2023-04-24T13:03:42;94773.13;;;23.52;39.13
10652;BME280;5374;42.742;23.266;2023-04-24T13:06:29;94773.88;;;23.65;38.39
10652;BME280;5374;42.742;23.266;2023-04-24T13:09:17;94771.94;;;23.65;37.71
10652;BME280;5374;42.742;23.266;2023-04-24T13:12:04;94775.00;;;23.64;36.77
10652;BME280;5374;42.742;23.266;2023-04-24T13:14:53;94743.97;;;23.33;37.39
10652;BME280;5374;42.742;23.266;2023-04-24T13:17:41;94757.91;;;23.47;36.40
10652;BME280;5374;42.742;23.266;2023-04-24T13:20:28;94751.66;;;23.59;36.57
10652;BME280;5374;42.742;23.266;2023-04-24T13:23:16;94752.78;;;23.58;36.83
10652;BME280;5374;42.742;23.266;2023-04-24T13:26:03;94749.81;;;23.79;35.40
10652;BME280;5374;42.742;23.266;2023-04-24T13:28:51;94742.72;;;23.90;35.62
10652;BME280;5374;42.742;23.266;2023-04-24T13:31:39;94734.44;;;24.18;35.54
10652;BME280;5374;42.742;23.266;2023-04-24T13:34:27;94731.94;;;24.25;34.65
10652;BME280;5374;42.742;23.266;2023-04-24T13:37:15;94731.84;;;24.37;34.18
10652;BME280;5374;42.742;23.266;2023-04-24T13:40:02;94715.66;;;24.25;33.94
10652;BME280;5374;42.742;23.266;2023-04-24T13:42:51;94726.47;;;24.41;33.19
10652;BME280;5374;42.742;23.266;2023-04-24T13:45:38;94722.41;;;24.50;33.89
10652;BME280;5374;42.742;23.266;2023-04-24T13:48:27;94710.19;;;24.41;34.17
10652;BME280;5374;42.742;23.266;2023-04-24T13:51:14;94706.97;;;24.35;34.26
10652;BME280;5374;42.742;23.266;2023-04-24T13:54:01;94704.75;;;23.43;35.33
10652;BME280;5374;42.742;23.266;2023-04-24T13:56:48;94698.22;;;23.00;36.06
10652;BME280;5374;42.742;23.266;2023-04-24T13:59:36;94698.94;;;23.29;36.38
10652;BME280;5374;42.742;23.266;2023-04-24T14:02:23;94689.44;;;23.35;36.62
10652;BME280;5374;42.742;23.266;2023-04-24T14:05:12;94683.31;;;23.38;34.80
10652;BME280;5374;42.742;23.266;2023-04-24T14:07:59;94674.25;;;23.62;34.48
10652;BME280;5374;42.742;23.266;2023-04-24T14:10:47;94679.66;;;23.77;35.31
10652;BME280;5374;42.742;23.266;2023-04-24T14:13:35;94668.38;;;23.44;34.70
10652;BME280;5374;42.742;23.266;2023-04-24T14:16:22;94671.59;;;23.34;35.63
10652;BME280;5374;42.742;23.266;2023-04-24T14:19:10;94666.28;;;23.22;34.49
10652;BME280;5374;42.742;23.266;2023-04-24T14:21:59;94658.22;;;23.09;35.68
10652;BME280;5374;42.742;23.266;2023-04-24T14:24:46;94670.56;;;22.79;35.10
10652;BME280;5374;42.742;23.266;2023-04-24T14:27:33;94672.91;;;22.52;35.90
10652;BME280;5374;42.742;23.266;2023-04-24T14:30:21;94658.72;;;22.03;40.52
10652;BME280;5374;42.742;23.266;2023-04-24T14:33:08;94655.22;;;22.03;41.44
10652;BME280;5374;42.742;23.266;2023-04-24T14:35:55;94657.72;;;21.71;42.30
10652;BME280;5374;42.742;23.266;2023-04-24T14:38:44;94646.81;;;21.56;42.50
10652;BME280;5374;42.742;23.266;2023-04-24T14:41:31;94667.59;;;21.31;43.31
10652;BME280;5374;42.742;23.266;2023-04-24T14:44:21;94667.78;;;21.13;44.86
10652;BME280;5374;42.742;23.266;2023-04-24T14:47:08;94670.34;;;20.65;45.71
10652;BME280;5374;42.742;23.266;2023-04-24T14:49:55;94671.81;;;20.41;45.44
10652;BME280;5374;42.742;23.266;2023-04-24T14:52:42;94670.56;;;19.68;46.64
10652;BME280;5374;42.742;23.266;2023-04-24T14:55:31;94680.28;;;19.60;47.00
10652;BME280;5374;42.742;23.266;2023-04-24T14:58:22;94676.97;;;19.46;48.30
10652;BME280;5374;42.742;23.266;2023-04-24T15:01:10;94672.44;;;18.91;49.36
10652;BME280;5374;42.742;23.266;2023-04-24T15:03:57;94666.56;;;18.98;49.18
10652;BME280;5374;42.742;23.266;2023-04-24T15:06:45;94675.75;;;18.97;47.72
10652;BME280;5374;42.742;23.266;2023-04-24T15:09:32;94656.63;;;18.81;48.26
10652;BME280;5374;42.742;23.266;2023-04-24T15:12:21;94679.41;;;18.92;47.79
10652;BME280;5374;42.742;23.266;2023-04-24T15:15:09;94650.91;;;18.91;48.58
10652;BME280;5374;42.742;23.266;2023-04-24T15:17:56;94657.47;;;18.73;50.53
10652;BME280;5374;42.742;23.266;2023-04-24T15:20:43;94668.38;;;18.68;52.89
10652;BME280;5374;42.742;23.266;2023-04-24T15:23:31;94661.41;;;18.50;58.05
10652;BME280;5374;42.742;23.266;2023-04-24T15:26:18;94676.59;;;18.45;58.14
10652;BME280;5374;42.742;23.266;2023-04-24T15:29:07;94654.78;;;18.21;60.32
10652;BME280;5374;42.742;23.266;2023-04-24T15:31:54;94653.50;;;17.93;60.36
10652;BME280;5374;42.742;23.266;2023-04-24T15:34:41;94667.22;;;17.74;62.91
10652;BME280;5374;42.742;23.266;2023-04-24T15:37:28;94660.06;;;17.52;63.96
10652;BME280;5374;42.742;23.266;2023-04-24T15:40:15;94686.53;;;17.45;63.14
10652;BME280;5374;42.742;23.266;2023-04-24T15:43:03;94694.28;;;17.47;61.91
10652;BME280;5374;42.742;23.266;2023-04-24T15:45:51;94692.06;;;17.40;64.78
10652;BME280;5374;42.742;23.266;2023-04-24T15:48:39;94695.78;;;17.22;66.96
10652;BME280;5374;42.742;23.266;2023-04-24T15:51:26;94698.47;;;17.22;68.21
10652;BME280;5374;42.742;23.266;2023-04-24T15:54:14;94694.72;;;17.00;67.40
10652;BME280;5374;42.742;23.266;2023-04-24T15:57:01;94715.84;;;16.93;68.19